createdAt,value
2022-12-11T00:04:01.111Z,-2.54
2022-12-11T00:09:02.749Z,-2.47
2022-12-11T00:14:04.149Z,-2.44
2022-12-11T00:19:05.598Z,-2.39
2022-12-11T00:24:07.095Z,-2.29
2022-12-11T00:29:14.291Z,-2.40
2022-12-11T00:34:15.707Z,-2.34
2022-12-11T00:39:17.107Z,-2.34
2022-12-11T00:44:18.796Z,-2.26
2022-12-11T00:49:20.109Z,-2.32
2022-12-11T00:54:21.495Z,-2.01
2022-12-11T00:59:22.834Z,-2.19
2022-12-11T01:04:24.607Z,-2.31
2022-12-11T01:09:44.881Z,-2.15
2022-12-11T01:14:46.253Z,-2.07
2022-12-11T01:19:47.702Z,-2.05
2022-12-11T01:24:49.051Z,-1.94
2022-12-11T01:29:50.454Z,-2.11
2022-12-11T01:34:51.863Z,-2.07
2022-12-11T01:39:53.258Z,-2.05
2022-12-11T01:45:13.295Z,-1.91
2022-12-11T01:50:15.274Z,-1.84
2022-12-11T01:55:18.216Z,-1.93
2022-12-11T02:00:20.723Z,-1.90
2022-12-11T02:05:22.029Z,-1.93
2022-12-11T02:10:28.255Z,-1.92
2022-12-11T02:15:29.579Z,-1.83
2022-12-11T02:20:37.232Z,-1.80
2022-12-11T02:25:47.651Z,-1.83
2022-12-11T02:30:55.753Z,-1.79
2022-12-11T02:35:57.134Z,-1.77
2022-12-11T02:41:00.454Z,-1.75
2022-12-11T02:46:03.484Z,-1.70
2022-12-11T02:51:06.161Z,-1.70
2022-12-11T02:56:12.489Z,-1.68
2022-12-11T03:01:14.000Z,-1.65
2022-12-11T03:06:18.289Z,-1.68
2022-12-11T03:11:19.619Z,-1.61
2022-12-11T03:16:37.701Z,-1.69
2022-12-11T03:21:48.109Z,-1.75
2022-12-11T03:27:00.785Z,-1.65
2022-12-11T03:32:12.174Z,-1.62
2022-12-11T03:37:14.429Z,-1.73
2022-12-11T03:42:16.973Z,-1.76
2022-12-11T03:47:20.504Z,-1.73
2022-12-11T03:52:22.898Z,-1.69
2022-12-11T03:57:27.126Z,-1.73
2022-12-11T04:02:28.448Z,-1.71
2022-12-11T04:07:31.249Z,-1.66
2022-12-11T04:12:32.595Z,-1.72
2022-12-11T04:17:54.409Z,-1.77
2022-12-11T04:23:14.280Z,-1.76
2022-12-11T04:28:15.734Z,-1.75
2022-12-11T04:33:17.115Z,-1.77
2022-12-11T04:38:18.430Z,-1.79
2022-12-11T04:43:19.740Z,-1.78
2022-12-11T04:48:21.055Z,-1.86
2022-12-11T04:53:22.442Z,-1.90
2022-12-11T04:58:24.284Z,-1.87
2022-12-11T05:03:25.586Z,-1.87
2022-12-11T05:08:27.022Z,-1.84
2022-12-11T05:13:29.138Z,-1.79
2022-12-11T05:18:30.536Z,-1.83
2022-12-11T05:23:31.899Z,-1.82
2022-12-11T05:28:34.756Z,-1.78
2022-12-11T05:33:36.166Z,-1.74
2022-12-11T05:38:37.473Z,-1.68
2022-12-11T05:43:38.905Z,-1.63
2022-12-11T05:48:40.950Z,-1.55
2022-12-11T05:53:43.529Z,-1.61
2022-12-11T05:58:45.478Z,-1.62
2022-12-11T06:03:46.841Z,-1.59
2022-12-11T06:08:55.403Z,-1.64
2022-12-11T06:13:56.936Z,-1.61
2022-12-11T06:18:58.848Z,-1.62
2022-12-11T06:24:02.173Z,-1.64
2022-12-11T06:29:07.580Z,-1.66
2022-12-11T06:34:12.703Z,-1.62
2022-12-11T06:39:14.082Z,-1.57
2022-12-11T06:44:15.502Z,-1.60
2022-12-11T06:49:16.874Z,-1.62
2022-12-11T06:54:18.189Z,-1.59
2022-12-11T06:59:19.780Z,-1.65
2022-12-11T07:04:24.642Z,-1.58
2022-12-11T07:09:25.980Z,-1.70
2022-12-11T07:14:27.286Z,-1.70
2022-12-11T07:19:28.759Z,-1.67
2022-12-11T07:24:30.070Z,-1.71
2022-12-11T07:29:31.397Z,-1.62
2022-12-11T07:34:32.736Z,-1.69
2022-12-11T07:39:34.240Z,-1.70
2022-12-11T07:44:35.614Z,-1.69
2022-12-11T07:49:36.946Z,-1.68
2022-12-11T07:54:38.377Z,-1.67
2022-12-11T07:59:39.702Z,-1.61
2022-12-11T08:04:41.041Z,-1.59
2022-12-11T08:09:42.390Z,-1.49
2022-12-11T08:14:43.730Z,-1.48
2022-12-11T08:19:45.049Z,-1.42
2022-12-11T08:24:47.109Z,-1.35
2022-12-11T08:29:48.630Z,-1.39
2022-12-11T08:34:50.966Z,-1.36
2022-12-11T08:39:52.291Z,-1.28
2022-12-11T08:44:53.662Z,-1.25
2022-12-11T08:49:54.975Z,-1.14
2022-12-11T08:54:56.286Z,-1.13
2022-12-11T08:59:57.726Z,-1.04
2022-12-11T09:04:59.142Z,-1.03
2022-12-11T09:10:01.016Z,-1.04
2022-12-11T09:15:02.551Z,-1.07
2022-12-11T09:20:04.174Z,-0.88
2022-12-11T09:25:05.794Z,-0.88
2022-12-11T09:30:07.954Z,-0.84
2022-12-11T09:35:09.679Z,-0.54
2022-12-11T09:40:12.036Z,-0.44
2022-12-11T09:45:15.292Z,-0.38
2022-12-11T09:50:42.896Z,-0.40
2022-12-11T09:55:51.454Z,-0.30
2022-12-11T10:00:52.749Z,-0.49
2022-12-11T10:06:17.646Z,-0.45
2022-12-11T10:11:38.790Z,-0.41
2022-12-11T10:16:51.455Z,-0.38
2022-12-11T10:21:53.156Z,-0.16
2022-12-11T10:26:56.149Z,-0.10
2022-12-11T10:31:58.483Z,-0.16
2022-12-11T10:37:00.655Z,0.10
2022-12-11T10:42:12.664Z,0.26
2022-12-11T10:47:14.917Z,0.04
2022-12-11T10:52:24.024Z,0.04
2022-12-11T10:57:29.772Z,0.42
2022-12-11T11:02:34.317Z,0.31
2022-12-11T11:07:35.760Z,0.63
2022-12-11T11:12:41.729Z,0.45
2022-12-11T11:17:54.467Z,0.66
2022-12-11T11:22:57.578Z,0.62
2022-12-11T11:28:03.738Z,0.66
2022-12-11T11:33:25.450Z,0.78
2022-12-11T11:38:29.367Z,1.01
2022-12-11T11:43:42.542Z,0.90
2022-12-11T11:48:43.834Z,0.59
2022-12-11T11:53:48.376Z,0.80
2022-12-11T11:59:13.071Z,0.67
2022-12-11T12:04:14.571Z,0.97
2022-12-11T12:09:30.883Z,0.70
2022-12-11T12:14:52.116Z,0.86
2022-12-11T12:20:26.138Z,0.94
2022-12-11T12:25:30.217Z,1.97
2022-12-11T12:30:35.711Z,2.44
2022-12-11T12:35:38.366Z,2.13
2022-12-11T12:40:58.204Z,1.45
2022-12-11T12:46:18.414Z,0.75
2022-12-11T12:51:20.086Z,0.75
2022-12-11T12:56:21.825Z,1.12
2022-12-11T13:01:25.441Z,1.66
2022-12-11T13:06:35.718Z,1.61
2022-12-11T13:11:37.032Z,1.58
2022-12-11T13:16:40.189Z,1.30
2022-12-11T13:21:41.707Z,0.95
2022-12-11T13:26:43.453Z,1.21
2022-12-11T13:31:45.578Z,0.93
2022-12-11T13:36:51.734Z,1.37
2022-12-11T13:41:59.481Z,1.27
2022-12-11T13:47:03.220Z,1.13
2022-12-11T13:52:04.927Z,1.05
2022-12-11T13:57:06.209Z,0.94
2022-12-11T14:02:17.885Z,1.21
2022-12-11T14:07:23.653Z,1.11
2022-12-11T14:12:25.016Z,0.97
2022-12-11T14:17:31.487Z,0.75
2022-12-11T14:22:32.807Z,0.58
2022-12-11T14:27:34.133Z,0.43
2022-12-11T14:32:38.291Z,0.35
2022-12-11T14:37:39.810Z,0.33
2022-12-11T14:42:43.977Z,0.29
2022-12-11T14:47:45.425Z,0.14
2022-12-11T14:52:48.658Z,0.16
2022-12-11T14:57:51.064Z,0.17
2022-12-11T15:02:59.642Z,0.17
2022-12-11T15:08:02.779Z,0.12
2022-12-11T15:13:05.840Z,0.11
2022-12-11T15:18:13.338Z,0.07
2022-12-11T15:23:18.663Z,0.01
2022-12-11T15:28:30.964Z,0.02
2022-12-11T15:33:34.563Z,-0.02
2022-12-11T15:38:39.463Z,-0.03
2022-12-11T15:43:41.155Z,-0.05
2022-12-11T15:48:42.682Z,-0.03
2022-12-11T15:53:44.028Z,0.04
2022-12-11T15:58:47.078Z,0.03
2022-12-11T16:03:50.289Z,0.04
2022-12-11T16:08:51.632Z,-0.02
2022-12-11T16:13:52.934Z,0.05
2022-12-11T16:18:54.302Z,0.09
2022-12-11T16:23:55.617Z,-0.06
2022-12-11T16:28:56.996Z,0.03
2022-12-11T16:33:58.389Z,0.04
2022-12-11T16:38:59.706Z,0.07
2022-12-11T16:44:01.849Z,0.14
2022-12-11T16:49:03.958Z,0.03
2022-12-11T16:54:05.294Z,-0.01
2022-12-11T16:59:06.748Z,0.03
2022-12-11T17:04:08.200Z,-0.04
2022-12-11T17:09:09.562Z,0.01
2022-12-11T17:14:12.497Z,-0.01
2022-12-11T17:19:14.229Z,-0.03
2022-12-11T17:24:15.920Z,-0.03
2022-12-11T17:29:17.478Z,-0.08
2022-12-11T17:34:18.883Z,-0.10
2022-12-11T17:39:20.226Z,-0.19
2022-12-11T17:44:21.549Z,-0.17
2022-12-11T17:49:23.022Z,-0.16
2022-12-11T17:54:24.407Z,-0.15
2022-12-11T17:59:25.746Z,-0.17
2022-12-11T18:04:27.132Z,-0.18
2022-12-11T18:09:28.473Z,-0.14
2022-12-11T18:14:29.861Z,-0.13
2022-12-11T18:19:31.925Z,-0.19
2022-12-11T18:24:33.302Z,-0.15
2022-12-11T18:29:34.779Z,-0.15
2022-12-11T18:34:36.089Z,-0.15
2022-12-11T18:39:37.397Z,-0.20
2022-12-11T18:44:38.806Z,-0.20
2022-12-11T18:49:40.209Z,-0.23
2022-12-11T18:54:41.868Z,-0.18
2022-12-11T18:59:43.233Z,-0.25
2022-12-11T19:04:44.561Z,-0.26
2022-12-11T19:09:48.311Z,-0.25
2022-12-11T19:14:49.952Z,-0.27
2022-12-11T19:19:51.327Z,-0.26
2022-12-11T19:24:52.641Z,-0.31
2022-12-11T19:29:54.075Z,-0.41
2022-12-11T19:34:55.557Z,-0.47
2022-12-11T19:39:56.869Z,-0.61
2022-12-11T19:44:58.207Z,-0.71
2022-12-11T19:49:59.526Z,-0.88
2022-12-11T19:55:01.899Z,-1.02
2022-12-11T20:00:04.148Z,-1.21
2022-12-11T20:05:05.723Z,-1.40
2022-12-11T20:10:07.488Z,-1.65
2022-12-11T20:15:09.188Z,-1.90
2022-12-11T20:20:10.769Z,-2.09
2022-12-11T20:25:12.442Z,-2.02
2022-12-11T20:30:14.298Z,-2.07
2022-12-11T20:35:15.644Z,-2.31
2022-12-11T20:40:17.056Z,-2.45
2022-12-11T20:45:18.407Z,-2.53
2022-12-11T20:50:19.708Z,-2.48
2022-12-11T20:55:21.020Z,-2.29
2022-12-11T21:00:22.385Z,-2.15
2022-12-11T21:05:23.821Z,-1.97
2022-12-11T21:10:25.201Z,-1.74
2022-12-11T21:15:26.591Z,-1.76
2022-12-11T21:20:27.921Z,-1.80
2022-12-11T21:25:29.307Z,-1.81
2022-12-11T21:30:30.682Z,-1.74
2022-12-11T21:35:32.001Z,-1.67
2022-12-11T21:40:33.406Z,-1.64
2022-12-11T21:46:00.593Z,-1.61
2022-12-11T21:51:04.197Z,-1.51
2022-12-11T21:56:09.884Z,-1.67
2022-12-11T22:01:14.120Z,-1.77
2022-12-11T22:06:15.467Z,-1.75
2022-12-11T22:11:20.735Z,-1.93
2022-12-11T22:16:22.227Z,-1.87
2022-12-11T22:21:24.319Z,-1.84
2022-12-11T22:26:26.581Z,-1.77
2022-12-11T22:31:28.165Z,-1.70
2022-12-11T22:36:29.556Z,-1.74
2022-12-11T22:41:33.756Z,-1.72
2022-12-11T22:46:35.197Z,-1.68
2022-12-11T22:51:36.723Z,-1.70
2022-12-11T22:56:38.227Z,-1.68
2022-12-11T23:01:39.631Z,-1.61
2022-12-11T23:06:40.967Z,-1.46
2022-12-11T23:11:42.351Z,-1.61
2022-12-11T23:16:44.231Z,-1.64
2022-12-11T23:21:45.724Z,-1.55
2022-12-11T23:26:48.093Z,-1.65
2022-12-11T23:31:49.469Z,-1.75
2022-12-11T23:36:50.792Z,-1.70
2022-12-11T23:41:53.986Z,-1.61
2022-12-11T23:46:55.336Z,-1.56
2022-12-11T23:51:56.765Z,-1.55
2022-12-11T23:56:58.098Z,-1.61
